Time;durP1;ratioP1;P1;durP2;ratioP2;P2;SDS_P1;SDS_P2;PMS_P1;PMS_P2;Temp;Humidity;BMP_temperature;BMP_pressure;BME280_temperature;BME280_humidity;BME280_pressure;Samples;Min_cycle;Max_cycle;Signal;HPM_P1;HPM_P2
2022/03/13 00:02:17;;;;;;;10.03;3.40;;;;;;;1.17;46.06;100291.38;4955787;29;20966;-91
2022/03/13 00:04:50;;;;;;;18.00;3.27;;;;;;;1.21;45.93;100293.97;4956329;29;20747;-92
2022/03/13 00:07:19;;;;;;;12.83;4.47;;;;;;;1.30;46.05;100292.25;4955750;29;20449;-91
2022/03/13 00:09:51;;;;;;;3.03;2.10;;;;;;;1.33;45.71;100287.97;4955982;29;20916;-91
2022/03/13 00:12:29;;;;;;;2.93;2.00;;;;;;;1.26;45.51;100281.06;4955712;29;20422;-91
2022/03/13 00:14:56;;;;;;;12.83;2.23;;;;;;;1.33;45.21;100280.22;4954658;29;20449;-91
2022/03/13 00:17:28;;;;;;;3.90;1.87;;;;;;;1.28;45.70;100273.31;4956117;29;20411;-92
2022/03/13 00:20:02;;;;;;;7.50;2.23;;;;;;;1.27;45.46;100272.47;4956152;29;20414;-91
2022/03/13 00:22:31;;;;;;;3.80;2.50;;;;;;;1.34;45.03;100263.03;4938539;29;20458;-91
2022/03/13 00:24:59;;;;;;;4.67;2.57;;;;;;;1.36;45.63;100267.34;4955411;29;20466;-91
2022/03/13 00:27:25;;;;;;;3.53;2.10;;;;;;;1.37;44.97;100270.75;4955710;29;20417;-91
2022/03/13 00:29:51;;;;;;;5.10;1.97;;;;;;;1.27;45.30;100271.59;4938506;29;20617;-91
2022/03/13 00:32:17;;;;;;;2.30;1.33;;;;;;;1.30;45.51;100266.44;4955401;29;20931;-91
2022/03/13 00:34:43;;;;;;;2.30;1.37;;;;;;;1.30;44.65;100262.13;4954434;29;20189;-91
2022/03/13 00:37:10;;;;;;;3.87;1.43;;;;;;;1.17;45.02;100270.72;4955272;29;20422;-91
2022/03/13 00:39:38;;;;;;;6.43;2.10;;;;;;;0.88;45.37;100274.91;4955545;29;20181;-91
2022/03/13 00:42:04;;;;;;;2.63;1.50;;;;;;;0.77;46.13;100269.69;4954295;29;20503;-91
2022/03/13 00:44:45;;;;;;;2.27;1.77;;;;;;;0.83;45.96;100269.72;4938141;29;20514;-92
2022/03/13 00:47:11;;;;;;;1.40;1.10;;;;;;;0.97;45.99;100274.94;4955352;29;20278;-91
2022/03/13 00:49:36;;;;;;;4.50;1.70;;;;;;;0.90;45.97;100276.63;4938476;29;20431;-91
2022/03/13 00:52:22;;;;;;;1.97;1.70;;;;;;;0.83;46.38;100264.56;4955138;29;20178;-91
2022/03/13 00:54:51;;;;;;;2.50;1.67;;;;;;;0.70;46.73;100267.06;4954221;29;20246;-91
2022/03/13 00:57:17;;;;;;;0.60;0.60;;;;;;;0.75;47.32;100261.09;4955142;29;20463;-91
2022/03/13 00:59:42;;;;;;;1.93;1.70;;;;;;;0.72;46.97;100260.19;4938129;29;20456;-91
2022/03/13 01:02:10;;;;;;;3.30;1.40;;;;;;;0.79;47.44;100249.03;4955091;29;20284;-92
2022/03/13 01:06:02;;;;;;;;;;;;;;;;;;;;;
2022/03/13 01:08:30;;;;;;;3.27;1.23;;;;;;;0.82;47.00;100243.88;4947338;29;20425;-91
2022/03/13 01:11:00;;;;;;;1.00;0.53;;;;;;;0.76;46.32;100244.72;4942994;29;20914;-91
2022/03/13 01:13:26;;;;;;;3.33;1.97;;;;;;;0.47;47.53;100252.31;4958882;29;20440;-92
2022/03/13 01:16:00;;;;;;;4.17;1.83;;;;;;;0.46;47.50;100248.03;4958662;29;20902;-91
2022/03/13 01:18:28;;;;;;;1.60;1.10;;;;;;;0.48;47.32;100246.31;4959073;29;20470;-91
2022/03/13 01:20:54;;;;;;;2.03;1.67;;;;;;;0.48;47.30;100241.16;4956874;28;20519;-91
2022/03/13 01:23:19;;;;;;;3.37;1.90;;;;;;;0.42;47.20;100245.44;4958319;29;20505;-91
2022/03/13 01:26:05;;;;;;;1.23;0.83;;;;;;;0.37;47.71;100241.94;4958442;29;20664;-91
2022/03/13 01:28:30;;;;;;;1.43;1.23;;;;;;;0.38;47.31;100244.53;4958524;29;20623;-91
2022/03/13 01:30:55;;;;;;;4.30;2.00;;;;;;;0.48;47.56;100237.72;4957384;29;20994;-91
2022/03/13 01:33:21;;;;;;;1.57;0.87;;;;;;;0.47;47.44;100234.25;4958541;29;20522;-92
2022/03/13 01:35:47;;;;;;;5.07;1.67;;;;;;;0.46;47.33;100231.69;4958399;29;20179;-92
2022/03/13 01:38:14;;;;;;;5.17;1.70;;;;;;;0.42;47.03;100235.97;4958420;29;20650;-92
2022/03/13 01:40:40;;;;;;;0.87;0.80;;;;;;;0.48;47.43;100235.13;4958303;29;20604;-92
2022/03/13 01:43:06;;;;;;;5.23;1.33;;;;;;;0.63;47.08;100229.22;4957860;29;20517;-91
2022/03/13 01:45:33;;;;;;;1.50;1.10;;;;;;;0.51;46.92;100227.41;4956954;29;20209;-92
2022/03/13 01:48:00;;;;;;;2.30;1.53;;;;;;;0.36;47.38;100233.38;4956505;29;20437;-92
2022/03/13 01:50:27;;;;;;;1.23;1.00;;;;;;;0.41;47.39;100226.50;4956107;29;20420;-91
2022/03/13 01:52:54;;;;;;;4.43;1.10;;;;;;;0.48;47.03;100224.81;4940210;29;20430;-91
2022/03/13 01:55:21;;;;;;;4.20;1.87;;;;;;;0.42;46.96;100220.47;4957151;29;20417;-91
2022/03/13 01:57:48;;;;;;;5.50;1.83;;;;;;;0.40;47.03;100229.94;4956991;29;20450;-91
2022/03/13 02:00:16;;;;;;;2.53;2.20;;;;;;;0.47;46.87;100228.28;4956163;29;20438;-91
2022/03/13 02:02:49;;;;;;;2.20;1.73;;;;;;;0.38;47.16;100234.22;4956928;29;20433;-92
2022/03/13 02:05:33;;;;;;;2.23;1.60;;;;;;;0.46;47.18;100229.97;4939932;29;20433;-91
2022/03/13 02:08:05;;;;;;;1.10;0.90;;;;;;;0.44;47.14;100231.69;4956950;29;20908;-91
2022/03/13 02:10:32;;;;;;;2.50;1.63;;;;;;;0.35;47.22;100226.47;4940145;29;20523;-91
2022/03/13 02:13:01;;;;;;;1.97;1.77;;;;;;;0.41;47.38;100229.09;4955704;29;20425;-92
2022/03/13 02:15:30;;;;;;;1.60;1.20;;;;;;;0.49;47.11;100227.41;4956514;29;20466;-92
2022/03/13 02:18:01;;;;;;;1.47;0.97;;;;;;;0.52;47.24;100231.72;4939854;29;20588;-91
2022/03/13 02:20:28;;;;;;;2.07;1.13;;;;;;;0.53;47.15;100239.47;4956632;29;20443;-92
2022/03/13 02:23:28;;;;;;;4.83;1.63;;;;;;;0.52;47.04;100232.56;4956572;29;20921;-91
2022/03/13 02:26:01;;;;;;;3.37;2.17;;;;;;;0.46;47.06;100232.56;4956506;29;20480;-91
2022/03/13 02:28:30;;;;;;;2.13;1.40;;;;;;;0.49;46.70;100232.56;4939656;29;20484;-92
2022/03/13 02:31:05;;;;;;;3.77;1.23;;;;;;;0.51;46.96;100236.03;4956430;29;20416;-91
2022/03/13 02:33:32;;;;;;;1.50;1.37;;;;;;;0.49;46.63;100229.13;4955555;29;20505;-91
2022/03/13 02:36:03;;;;;;;2.63;1.10;;;;;;;0.41;46.46;100234.25;4956496;29;20418;-92
2022/03/13 02:38:30;;;;;;;2.00;1.40;;;;;;;0.29;47.02;100225.59;4956509;29;20468;-92
2022/03/13 02:40:58;;;;;;;2.50;1.50;;;;;;;0.28;46.33;100234.16;4956401;29;20426;-92
2022/03/13 02:43:25;;;;;;;14.10;1.30;;;;;;;0.44;46.34;100229.13;4955504;29;20431;-91
2022/03/13 02:45:55;;;;;;;2.17;1.37;;;;;;;0.45;45.85;100240.28;4956103;29;20456;-91
2022/03/13 02:48:22;;;;;;;2.40;1.30;;;;;;;0.50;45.82;100234.28;4956230;29;20456;-91
2022/03/13 02:50:49;;;;;;;1.73;0.90;;;;;;;0.68;45.32;100232.66;4939110;29;20854;-92
2022/03/13 02:53:20;;;;;;;1.73;1.50;;;;;;;0.82;45.34;100228.41;4956168;29;20870;-91
2022/03/13 02:55:47;;;;;;;2.00;1.60;;;;;;;0.98;45.26;100230.19;4939585;29;20417;-92
2022/03/13 02:58:13;;;;;;;2.47;1.60;;;;;;;1.04;45.52;100233.66;4956053;29;20442;-91
2022/03/13 03:00:50;;;;;;;3.27;1.37;;;;;;;1.06;45.34;100223.34;4956009;29;20442;-91
2022/03/13 03:03:20;;;;;;;1.73;0.93;;;;;;;1.05;45.53;100227.63;4954945;29;20901;-91
2022/03/13 03:05:47;;;;;;;2.67;1.07;;;;;;;1.02;45.38;100226.78;4955847;29;20563;-91
2022/03/13 03:08:14;;;;;;;2.47;1.80;;;;;;;0.93;45.51;100230.19;4955855;29;20432;-92
2022/03/13 03:10:41;;;;;;;2.90;1.30;;;;;;;0.94;45.54;100231.06;4954801;29;20514;-92
2022/03/13 03:13:12;;;;;;;4.93;1.40;;;;;;;0.82;45.87;100224.13;4954809;29;20799;-92
2022/03/13 03:15:42;;;;;;;10.03;2.37;;;;;;;0.88;46.00;100226.72;4951437;29;20605;-92
2022/03/13 03:18:10;;;;;;;2.50;1.43;;;;;;;0.82;45.68;100221.53;4936574;29;20439;-92
2022/03/13 03:20:38;;;;;;;4.70;1.87;;;;;;;0.86;46.27;100222.41;4935817;29;20471;-91
2022/03/13 03:23:05;;;;;;;5.87;1.90;;;;;;;0.85;45.78;100218.97;4951287;29;20456;-91
2022/03/13 03:25:32;;;;;;;5.13;1.93;;;;;;;0.80;46.56;100218.09;4936154;29;20475;-91
2022/03/13 03:27:59;;;;;;;2.73;1.43;;;;;;;0.77;46.75;100214.63;4950933;28;20427;-91
2022/03/13 03:30:28;;;;;;;3.93;2.03;;;;;;;0.83;46.36;100218.09;4936325;29;20500;-92
2022/03/13 03:32:56;;;;;;;6.47;1.83;;;;;;;0.85;46.57;100215.53;4935985;29;20427;-92
2022/03/13 03:35:25;;;;;;;8.87;1.80;;;;;;;0.86;46.63;100210.38;4935038;29;20459;-91
2022/03/13 03:37:54;;;;;;;3.03;1.73;;;;;;;0.82;46.55;100215.50;4951335;29;20513;-91
2022/03/13 03:40:27;;;;;;;3.40;1.37;;;;;;;0.71;46.46;100215.47;4935215;29;20496;-92
2022/03/13 03:43:05;;;;;;;3.03;1.20;;;;;;;0.61;46.71;100216.28;4935131;29;20514;-91
2022/03/13 03:45:35;;;;;;;1.27;1.10;;;;;;;0.44;47.50;100211.06;4935053;29;20808;-92
2022/03/13 03:48:01;;;;;;;1.87;1.27;;;;;;;0.51;47.64;100210.22;4935247;29;20423;-91
2022/03/13 03:50:28;;;;;;;2.20;1.87;;;;;;;0.53;47.65;100213.66;4935851;29;20785;-92
2022/03/13 03:52:56;;;;;;;3.77;2.03;;;;;;;0.50;47.10;100208.50;4935851;29;20838;-92
2022/03/13 03:55:25;;;;;;;1.10;1.00;;;;;;;0.45;47.51;100211.91;4935808;29;20424;-92
2022/03/13 03:57:52;;;;;;;3.43;1.40;;;;;;;0.30;47.90;100210.13;4934918;29;20434;-91
2022/03/13 04:00:23;;;;;;;2.60;1.80;;;;;;;0.42;47.67;100219.66;4935616;29;20496;-91
2022/03/13 04:02:51;;;;;;;6.57;2.10;;;;;;;0.49;47.73;100206.78;4936004;29;20487;-91
2022/03/13 04:05:17;;;;;;;3.27;1.43;;;;;;;0.57;47.80;100210.28;4935256;29;20434;-92
2022/03/13 04:07:44;;;;;;;4.30;1.67;;;;;;;0.51;48.21;100210.22;4935661;29;20425;-92
2022/03/13 04:10:11;;;;;;;1.87;1.53;;;;;;;0.51;48.37;100206.78;4935660;29;20452;-91
2022/03/13 04:12:39;;;;;;;3.23;2.10;;;;;;;0.51;48.14;100210.22;4935519;29;20466;-91
2022/03/13 04:15:07;;;;;;;3.97;2.23;;;;;;;0.20;48.72;100220.38;4936428;29;20843;-91
2022/03/13 04:17:35;;;;;;;6.60;3.30;;;;;;;0.10;49.66;100206.56;4954447;29;20482;-92
2022/03/13 04:20:03;;;;;;;4.53;2.13;;;;;;;0.07;49.56;100216.84;4954527;29;20439;-92
2022/03/13 04:22:30;;;;;;;7.50;3.17;;;;;;;0.12;49.45;100214.28;4953449;29;21002;-91
2022/03/13 04:24:57;;;;;;;10.07;4.57;;;;;;;0.16;49.43;100218.63;4954152;29;20428;-91
2022/03/13 04:27:24;;;;;;;9.20;3.77;;;;;;;0.26;49.20;100218.66;4953288;29;20485;-91
2022/03/13 04:29:50;;;;;;;3.17;2.53;;;;;;;0.30;49.41;100222.13;4954331;29;20425;-91
2022/03/13 04:32:22;;;;;;;2.20;1.60;;;;;;;0.36;49.53;100219.59;4954219;29;20545;-91
2022/03/13 04:34:50;;;;;;;3.40;2.17;;;;;;;0.45;49.89;100215.34;4953202;29;20428;-90
2022/03/13 04:37:17;;;;;;;5.10;2.07;;;;;;;0.51;49.42;100225.72;4954477;29;20418;-92
2022/03/13 04:39:43;;;;;;;7.77;2.47;;;;;;;0.51;49.40;100217.09;4953348;29;20421;-91
2022/03/13 04:42:10;;;;;;;2.43;1.90;;;;;;;0.58;49.63;100217.13;4954224;29;20422;-91
2022/03/13 04:44:38;;;;;;;4.93;2.63;;;;;;;0.63;49.39;100218.88;4954127;29;20550;-91
2022/03/13 04:47:05;;;;;;;4.80;2.77;;;;;;;0.59;49.76;100218.88;4952899;29;20811;-91
2022/03/13 04:49:33;;;;;;;6.67;2.57;;;;;;;0.58;49.71;100221.41;4954120;29;20506;-91
2022/03/13 04:51:59;;;;;;;4.20;2.20;;;;;;;0.71;49.27;100222.38;4954143;29;20921;-91
2022/03/13 04:54:26;;;;;;;3.57;2.57;;;;;;;0.74;49.16;100217.19;4954097;29;20430;-92
2022/03/13 04:56:53;;;;;;;2.83;2.07;;;;;;;0.78;49.00;100217.22;4952551;29;20423;-91
2022/03/13 04:59:20;;;;;;;11.03;4.30;;;;;;;0.79;49.54;100226.69;4952946;29;20922;-92
2022/03/13 05:01:47;;;;;;;5.67;2.20;;;;;;;0.80;49.76;100227.53;4953162;29;20431;-92
2022/03/13 05:04:13;;;;;;;2.93;1.80;;;;;;;0.84;49.59;100224.13;4954156;29;20435;-92
2022/03/13 05:06:43;;;;;;;10.70;4.10;;;;;;;0.89;49.61;100222.44;4954051;29;20503;-91
2022/03/13 05:09:09;;;;;;;8.30;2.83;;;;;;;0.98;49.35;100217.28;4953257;29;20431;-91
2022/03/13 05:11:38;;;;;;;7.47;3.90;;;;;;;1.09;49.13;100231.09;4954190;29;20498;-92
2022/03/13 05:14:05;;;;;;;2.10;1.37;;;;;;;1.04;49.94;100227.63;4954009;29;20428;-92
2022/03/13 05:16:31;;;;;;;2.10;1.83;;;;;;;1.04;49.40;100230.22;4953719;29;20485;-92
2022/03/13 05:18:58;;;;;;;2.77;1.80;;;;;;;0.96;49.23;100234.50;4954036;29;20915;-92
2022/03/13 05:21:25;;;;;;;3.30;2.13;;;;;;;1.06;50.00;100233.66;4937144;29;20513;-92
2022/03/13 05:23:53;;;;;;;10.23;3.50;;;;;;;1.01;49.73;100227.63;4953964;29;20423;-92
2022/03/13 05:26:20;;;;;;;5.17;3.00;;;;;;;1.11;49.99;100235.41;4953950;29;20497;-92
2022/03/13 05:28:47;;;;;;;7.20;3.73;;;;;;;1.21;50.44;100234.56;4954004;29;20417;-92
2022/03/13 05:31:13;;;;;;;3.07;2.07;;;;;;;1.34;50.14;100232.88;4953059;29;20279;-92
2022/03/13 05:33:46;;;;;;;4.43;1.77;;;;;;;1.44;49.35;100237.19;4953981;29;20464;-94
2022/03/13 05:36:13;;;;;;;4.20;2.17;;;;;;;1.52;49.39;100237.22;4953984;29;20917;-94
2022/03/13 05:38:40;;;;;;;2.97;1.87;;;;;;;1.55;49.64;100239.78;4953256;29;20255;-92
2022/03/13 05:41:08;;;;;;;5.40;2.33;;;;;;;1.56;49.24;100239.81;4954141;29;20197;-92
2022/03/13 05:43:35;;;;;;;7.70;2.70;;;;;;;1.57;49.05;100244.09;4953928;29;20456;-91
2022/03/13 05:46:02;;;;;;;9.53;3.70;;;;;;;1.64;48.89;100248.41;4937021;29;20201;-93
2022/03/13 05:48:30;;;;;;;11.27;4.80;;;;;;;1.71;48.06;100250.16;4937051;29;20192;-93
2022/03/13 05:50:57;;;;;;;6.60;3.07;;;;;;;1.82;48.28;100247.56;4954277;28;20177;-93
2022/03/13 05:53:24;;;;;;;8.07;4.57;;;;;;;1.99;47.67;100247.56;4956611;29;20703;-93
2022/03/13 05:55:52;;;;;;;3.37;2.30;;;;;;;2.21;47.87;100249.25;4957429;29;20444;-92
2022/03/13 05:58:20;;;;;;;5.27;3.47;;;;;;;2.30;47.48;100249.25;4957417;29;20202;-93
2022/03/13 06:01:01;;;;;;;6.67;3.30;;;;;;;2.38;47.41;100245.81;4957433;29;20173;-93
2022/03/13 06:03:29;;;;;;;5.70;4.13;;;;;;;2.47;46.94;100261.28;4957897;29;20251;-92
2022/03/13 06:05:56;;;;;;;7.77;2.83;;;;;;;2.44;46.58;100257.84;4957181;29;20212;-93
2022/03/13 06:08:23;;;;;;;13.60;5.03;;;;;;;2.55;46.38;100250.91;4957314;29;20195;-93
2022/03/13 06:10:51;;;;;;;28.93;8.47;;;;;;;2.51;46.59;100251.81;4956510;29;20460;-93
2022/03/13 06:13:20;;;;;;;15.50;7.27;;;;;;;2.65;46.43;100252.63;4956363;29;20331;-94
2022/03/13 06:15:49;;;;;;;14.93;4.53;;;;;;;2.87;46.40;100249.09;4956999;29;20233;-93
2022/03/13 06:18:16;;;;;;;15.87;4.10;;;;;;;3.14;46.59;100249.84;4957458;29;20185;-93
2022/03/13 06:20:43;;;;;;;3.63;2.07;;;;;;;3.40;46.90;100251.44;4957185;29;20205;-93
2022/03/13 06:23:12;;;;;;;7.70;2.77;;;;;;;3.69;45.65;100252.06;4957436;29;20203;-93
2022/03/13 06:25:43;;;;;;;8.80;3.47;;;;;;;3.88;45.26;100255.41;4957012;29;20223;-93
2022/03/13 06:28:10;;;;;;;8.03;3.50;;;;;;;3.90;44.33;100258.88;4957206;29;20353;-93
2022/03/13 06:30:38;;;;;;;12.53;4.67;;;;;;;4.00;45.00;100257.91;4956189;29;20619;-94
2022/03/13 06:33:04;;;;;;;8.13;3.27;;;;;;;4.25;44.42;100255.94;4940228;29;20545;-94
2022/03/13 06:35:32;;;;;;;5.73;2.80;;;;;;;4.56;43.56;100248.75;4956917;29;20189;-95
2022/03/13 06:37:59;;;;;;;5.70;2.80;;;;;;;4.94;42.58;100241.34;4939923;29;20224;-92
2022/03/13 06:40:26;;;;;;;8.83;3.03;;;;;;;5.37;41.87;100239.91;4956629;29;20280;-92
2022/03/13 06:42:55;;;;;;;5.97;2.03;;;;;;;5.84;40.41;100246.16;4955560;29;20548;-92
2022/03/13 06:45:24;;;;;;;16.20;3.60;;;;;;;6.13;39.96;100236.16;4956330;29;20603;-92
2022/03/13 06:47:52;;;;;;;6.27;2.67;;;;;;;6.16;40.02;100241.28;4939502;29;20185;-92
2022/03/13 06:50:23;;;;;;;4.47;2.13;;;;;;;6.37;38.29;100242.69;4955516;29;20184;-93
2022/03/13 06:52:54;;;;;;;9.80;2.13;;;;;;;6.29;39.28;100228.94;4939598;29;20200;-93
2022/03/13 06:55:22;;;;;;;4.73;1.90;;;;;;;6.59;38.74;100230.97;4956052;29;20188;-91
2022/03/13 06:57:50;;;;;;;3.50;1.70;;;;;;;6.88;38.04;100240.81;4955405;29;20255;-92
2022/03/13 07:00:20;;;;;;;2.50;1.67;;;;;;;6.67;37.94;100232.53;4955517;29;20663;-93
2022/03/13 07:02:47;;;;;;;3.33;2.27;;;;;;;6.94;37.55;100232.88;4955805;28;20263;-96
2022/03/13 07:05:19;;;;;;;8.07;3.07;;;;;;;6.92;37.00;100234.69;4955784;29;20663;-93
2022/03/13 07:07:45;;;;;;;3.50;1.90;;;;;;;7.12;36.13;100232.50;4954925;29;20260;-90
2022/03/13 07:10:13;;;;;;;4.53;2.47;;;;;;;7.06;35.93;100233.50;4955867;29;20188;-90
2022/03/13 07:12:44;;;;;;;2.77;1.90;;;;;;;7.39;36.59;100231.88;4955663;29;20754;-90
2022/03/13 07:15:12;;;;;;;5.20;2.60;;;;;;;7.70;35.84;100227.72;4949530;29;20178;-91
2022/03/13 07:17:42;;;;;;;3.40;1.70;;;;;;;7.80;36.19;100224.00;4899395;29;20575;-89
2022/03/13 07:20:11;;;;;;;4.20;2.43;;;;;;;7.93;35.52;100229.75;4915176;29;20502;-91
2022/03/13 07:22:40;;;;;;;5.47;2.77;;;;;;;8.37;36.55;100226.91;4914739;29;20186;-91
2022/03/13 07:25:05;;;;;;;7.37;3.00;;;;;;;8.97;35.69;100221.75;4915432;29;20194;-92
2022/03/13 07:27:33;;;;;;;4.57;2.33;;;;;;;9.33;33.50;100219.81;4914624;29;20677;-92
2022/03/13 07:29:59;;;;;;;7.63;3.60;;;;;;;9.57;33.97;100221.66;4914724;29;20561;-92
2022/03/13 07:32:26;;;;;;;8.97;3.30;;;;;;;9.67;34.34;100222.25;4914623;29;20189;-91
2022/03/13 07:34:53;;;;;;;5.73;2.67;;;;;;;9.82;34.39;100214.78;4899695;29;20182;-92
2022/03/13 07:37:18;;;;;;;5.93;2.73;;;;;;;10.03;33.74;100213.22;4914279;29;20457;-91
2022/03/13 07:39:49;;;;;;;3.77;1.90;;;;;;;10.22;32.96;100211.69;4900023;29;20197;-91
2022/03/13 07:42:16;;;;;;;6.80;2.20;;;;;;;10.14;33.14;100208.47;4900111;29;20179;-90
2022/03/13 07:44:43;;;;;;;4.83;2.30;;;;;;;10.45;33.76;100214.38;4914087;29;20218;-91
2022/03/13 07:47:09;;;;;;;14.07;2.70;;;;;;;10.59;31.39;100215.66;4899626;29;20230;-91
2022/03/13 07:49:36;;;;;;;4.73;2.37;;;;;;;10.74;31.81;100213.38;4899410;29;20278;-90
2022/03/13 07:52:03;;;;;;;3.97;1.63;;;;;;;10.78;31.70;100203.59;4899656;29;20184;-90
2022/03/13 07:54:30;;;;;;;4.00;1.70;;;;;;;10.98;31.97;100195.84;4908716;29;20186;-91
2022/03/13 07:56:57;;;;;;;3.60;1.57;;;;;;;11.11;30.42;100205.84;4918136;29;20174;-90
2022/03/13 07:59:24;;;;;;;5.63;1.90;;;;;;;10.98;29.70;100201.97;4917795;29;20186;-90
2022/03/13 08:01:50;;;;;;;2.50;1.27;;;;;;;10.83;29.41;100199.03;4917961;29;20182;-90
2022/03/13 08:04:17;;;;;;;4.50;1.63;;;;;;;10.81;30.39;100208.75;4932829;29;20565;-90
2022/03/13 08:06:44;;;;;;;3.93;1.27;;;;;;;10.76;29.76;100218.56;4932517;29;20234;-91
2022/03/13 08:09:11;;;;;;;4.83;1.57;;;;;;;10.75;30.05;100211.59;4917605;29;20655;-90
2022/03/13 08:11:39;;;;;;;4.80;1.70;;;;;;;10.63;29.05;100206.78;4917672;29;20193;-90
2022/03/13 08:14:10;;;;;;;3.83;1.90;;;;;;;10.55;30.06;100207.06;4917712;29;20186;-91
2022/03/13 08:16:36;;;;;;;4.17;1.93;;;;;;;10.36;29.44;100204.22;4934083;29;20185;-91
2022/03/13 08:19:03;;;;;;;3.10;1.73;;;;;;;10.48;31.53;100202.97;4939397;29;20267;-90
2022/03/13 08:21:30;;;;;;;4.73;1.57;;;;;;;10.47;29.49;100209.97;4955758;28;20224;-92
2022/03/13 08:23:57;;;;;;;4.20;1.53;;;;;;;10.10;29.87;100205.97;4954775;29;20188;-91
2022/03/13 08:26:23;;;;;;;2.13;1.30;;;;;;;10.07;30.26;100206.94;4938825;29;20204;-93
2022/03/13 08:28:50;;;;;;;4.37;1.37;;;;;;;10.25;30.29;100208.97;4955552;29;20552;-92
2022/03/13 08:31:17;;;;;;;3.57;1.40;;;;;;;10.03;28.82;100197.50;4955659;29;20261;-93
2022/03/13 08:33:45;;;;;;;1.77;1.00;;;;;;;9.93;29.38;100201.31;4955826;29;20180;-92
2022/03/13 08:36:13;;;;;;;3.27;1.20;;;;;;;9.70;29.71;100198.56;4955622;29;20188;-90
2022/03/13 08:38:41;;;;;;;3.50;1.13;;;;;;;9.85;29.90;100195.50;4956157;29;20376;-91
2022/03/13 08:41:07;;;;;;;6.33;2.37;;;;;;;10.07;30.89;100191.22;4954533;29;20181;-90
2022/03/13 08:43:33;;;;;;;6.07;2.27;;;;;;;10.13;29.95;100192.81;4938673;29;20195;-91
2022/03/13 08:46:00;;;;;;;3.80;1.40;;;;;;;10.01;29.39;100191.41;4954233;29;20208;-91
2022/03/13 08:48:26;;;;;;;4.23;1.70;;;;;;;10.22;28.84;100198.59;4955743;29;20177;-91
2022/03/13 08:50:52;;;;;;;3.50;1.70;;;;;;;10.23;29.35;100186.34;4938463;29;20185;-91
2022/03/13 08:53:19;;;;;;;3.27;1.40;;;;;;;10.26;30.58;100192.34;4954280;29;20196;-93
2022/03/13 08:55:44;;;;;;;2.87;1.43;;;;;;;10.29;29.61;100187.00;4954572;29;20199;-93
2022/03/13 08:58:11;;;;;;;2.73;1.30;;;;;;;10.51;29.88;100187.09;4954537;29;20619;-92
2022/03/13 09:00:50;;;;;;;4.03;1.40;;;;;;;10.63;30.91;100183.19;4955331;29;20638;-92
2022/03/13 09:03:18;;;;;;;1.33;0.87;;;;;;;10.31;29.42;100181.72;4954788;29;20271;-92
2022/03/13 09:06:04;;;;;;;4.77;2.07;;;;;;;10.65;30.43;100178.75;4955118;29;20546;-92
2022/03/13 09:08:45;;;;;;;3.80;1.07;;;;;;;10.21;28.45;100178.56;4955053;29;20187;-92
2022/03/13 09:11:28;;;;;;;2.33;1.13;;;;;;;10.42;30.60;100172.56;4938734;29;20181;-91
2022/03/13 09:14:26;;;;;;;2.80;1.47;;;;;;;10.37;28.79;100174.50;4955635;29;20187;-92
2022/03/13 09:20:49;;;;;;;2.83;1.33;;;;;;;10.63;29.36;100170.09;4896030;29;20308;-93
2022/03/13 09:23:38;;;;;;;;;;;;;;;;;;;;;
2022/03/13 09:27:02;;;;;;;1.60;0.80;;;;;;;10.73;28.23;100171.44;4879731;29;20218;-95
2022/03/13 09:37:55;;;;;;;;;;;;;;;;;;;;;
2022/03/13 09:44:44;;;;;;;;;;;;;;;;;;;;;
2022/03/13 09:54:50;;;;;;;3.67;1.60;;;;;;;11.91;28.39;100141.41;4769654;30;20673;-92
2022/03/13 10:48:00;;;;;;;;;;;;;;;;;;;;;
2022/03/13 11:06:09;;;;;;;;;;;;;;;;;;;;;
2022/03/13 11:56:02;;;;;;;3.90;1.67;;;;;;;13.27;24.05;100034.34;4917894;29;20276;-88
2022/03/13 12:16:08;;;;;;;3.17;1.27;;;;;;;13.90;24.37;100012.66;4714224;30;20565;-93
2022/03/13 13:51:52;;;;;;;3.40;1.43;;;;;;;13.05;21.38;100002.91;4915490;29;20247;-91
2022/03/13 13:58:23;;;;;;;25.27;9.80;;;;;;;13.31;21.46;100005.13;4822169;29;20190;-92
2022/03/13 14:01:52;;;;;;;;;;;;;;;;;;;;;
2022/03/13 14:05:39;;;;;;;;;;;;;;;;;;;;;
2022/03/13 14:15:53;;;;;;;;;;;;;;;;;;;;;
2022/03/13 14:19:10;;;;;;;;;;;;;;;;;;;;;
2022/03/13 14:22:34;;;;;;;;;;;;;;;;;;;;;
2022/03/13 14:25:00;;;;;;;6.93;1.67;;;;;;;13.14;22.92;100001.66;4750243;30;20212;-91
2022/03/13 14:27:26;;;;;;;2.00;1.30;;;;;;;12.95;23.05;100002.50;4822908;29;20226;-90
2022/03/13 14:30:01;;;;;;;3.53;1.43;;;;;;;12.85;23.08;100001.25;4810185;29;20290;-91
2022/03/13 14:32:27;;;;;;;4.63;2.00;;;;;;;12.82;23.78;100011.06;4825103;29;20182;-89
2022/03/13 14:34:54;;;;;;;5.67;1.30;;;;;;;12.32;23.38;100010.78;4879233;29;20265;-91
2022/03/13 14:37:24;;;;;;;2.93;1.57;;;;;;;12.33;23.30;100023.03;4937609;29;20182;-93
2022/03/13 14:40:11;;;;;;;;;;;;;;;;;;;;;
2022/03/13 14:42:39;;;;;;;2.40;1.23;;;;;;;12.36;23.81;100022.88;4938632;29;20597;-91
2022/03/13 14:45:08;;;;;;;3.30;1.50;;;;;;;12.44;23.42;100020.78;4937678;29;20197;-92
2022/03/13 14:48:05;;;;;;;2.43;1.40;;;;;;;11.99;23.82;100023.69;4938739;29;20238;-90
2022/03/13 14:50:32;;;;;;;2.50;1.07;;;;;;;12.20;23.68;100029.75;4936731;29;20623;-92
2022/03/13 14:53:15;;;;;;;5.50;2.27;;;;;;;12.32;24.71;100034.44;4937738;29;20182;-90
2022/03/13 14:55:46;;;;;;;6.60;2.43;;;;;;;12.23;24.55;100033.13;4938744;29;20624;-90
2022/03/13 14:58:12;;;;;;;2.20;1.33;;;;;;;12.00;24.04;100035.88;4953847;29;20611;-91
2022/03/13 15:00:41;;;;;;;3.27;1.47;;;;;;;12.18;24.20;100039.50;4938105;29;20205;-91
2022/03/13 15:03:07;;;;;;;2.90;1.40;;;;;;;11.94;24.28;100041.44;4938389;29;20582;-90
2022/03/13 15:05:32;;;;;;;2.90;1.73;;;;;;;11.62;23.94;100034.91;4937938;29;20205;-91
2022/03/13 15:08:01;;;;;;;3.43;1.27;;;;;;;11.77;24.50;100043.91;4953205;29;20292;-91
2022/03/13 15:10:26;;;;;;;3.90;1.50;;;;;;;11.91;24.16;100038.94;4938110;29;20237;-91
2022/03/13 15:12:55;;;;;;;8.33;1.77;;;;;;;11.91;24.73;100041.56;4937322;29;20190;-90
2022/03/13 15:15:23;;;;;;;2.67;1.80;;;;;;;12.04;24.59;100047.13;4937259;29;20189;-91
2022/03/13 15:17:51;;;;;;;3.87;1.60;;;;;;;12.11;25.06;100043.31;4937803;29;20178;-91
2022/03/13 15:20:32;;;;;;;3.70;1.13;;;;;;;11.68;23.84;100053.06;4953111;29;20182;-92
2022/03/13 15:23:05;;;;;;;2.37;1.37;;;;;;;11.55;24.07;100054.47;4937621;29;20619;-90
2022/03/13 15:25:30;;;;;;;1.93;0.90;;;;;;;11.41;24.79;100058.56;4952638;29;20574;-91
2022/03/13 15:27:58;;;;;;;1.07;0.63;;;;;;;11.27;24.24;100060.94;4936665;29;20244;-91
2022/03/13 15:30:33;;;;;;;4.03;1.33;;;;;;;11.31;24.71;100060.72;4960430;28;20313;-91
2022/03/13 15:33:00;;;;;;;2.87;1.77;;;;;;;10.92;26.10;100071.06;4955559;29;20179;-90
2022/03/13 15:35:25;;;;;;;1.87;0.87;;;;;;;10.74;25.08;100078.78;4957433;28;20180;-90
2022/03/13 15:37:52;;;;;;;2.20;1.10;;;;;;;10.83;24.68;100070.53;4956783;28;20177;-90
2022/03/13 15:40:19;;;;;;;4.33;1.57;;;;;;;11.04;25.40;100077.56;4955589;28;20189;-90
2022/03/13 15:42:45;;;;;;;3.33;1.33;;;;;;;10.88;24.72;100086.94;4955583;28;20200;-91
2022/03/13 15:45:11;;;;;;;3.67;1.50;;;;;;;10.96;24.60;100079.63;4956172;28;20185;-90
2022/03/13 15:47:37;;;;;;;5.27;1.70;;;;;;;11.11;25.59;100079.03;4971394;28;20208;-90
2022/03/13 15:50:04;;;;;;;4.20;1.90;;;;;;;11.11;26.32;100076.41;4956497;28;20177;-89
2022/03/13 15:52:29;;;;;;;3.60;1.50;;;;;;;11.05;25.45;100084.53;4955292;29;20196;-90
2022/03/13 15:54:58;;;;;;;4.43;1.60;;;;;;;11.15;25.10;100080.63;4956780;28;20181;-90
2022/03/13 15:57:24;;;;;;;2.30;1.00;;;;;;;10.88;25.60;100094.81;4955317;29;20248;-90
2022/03/13 15:59:54;;;;;;;2.87;1.17;;;;;;;10.87;25.64;100094.00;4955214;28;20619;-91
2022/03/13 16:02:28;;;;;;;1.73;0.87;;;;;;;10.82;25.82;100100.31;4955988;28;20205;-91
2022/03/13 16:04:54;;;;;;;2.40;1.10;;;;;;;10.47;26.10;100102.50;4971245;28;20188;-90
2022/03/13 16:07:20;;;;;;;2.90;1.77;;;;;;;10.53;26.04;100108.41;4956027;28;20258;-90
2022/03/13 16:09:47;;;;;;;6.00;2.13;;;;;;;10.57;26.18;100107.38;4956205;29;20267;-91
2022/03/13 16:12:12;;;;;;;1.70;1.00;;;;;;;10.37;25.77;100111.59;4956030;28;20208;-90
2022/03/13 16:14:39;;;;;;;3.10;1.17;;;;;;;10.45;26.77;100108.69;4954903;28;20214;-90
2022/03/13 16:17:04;;;;;;;3.77;1.57;;;;;;;10.11;26.12;100124.75;4956409;28;20176;-91
2022/03/13 16:19:32;;;;;;;7.33;1.70;;;;;;;10.15;26.94;100120.25;4955136;29;20550;-91
2022/03/13 16:22:00;;;;;;;2.60;1.40;;;;;;;10.25;27.10;100121.66;4955680;28;20197;-90